PWSweather.com
Personal Weather Stations
Station Observations
728536
Kristiansand, FlekkeroyNO 4625

KristiansandFlekkeroyNO 4625

Lat: 58.0860587, Lon: 8.0151742

Elevation: 36

Station Type: Davis Vantage Pro2

http://www.paulen.no

High Low Average
Temperature 56.8°F13.8°C 47.7°F8.7°C 52.0°F11.1°C
Dew Point 54.5°F12.5°C 45.8°F7.7°C 49.3°F9.6°C
Winds 13.8 mph 22.2 kmh Calm Calm 4.0 mph W6.4 kmh W
Wind Gusts 16.1 mph25.9 kmh -- 7.0 mph11.3 kmh
Humidity 99% 82% 91%
Pressure 29.52 in999.7 mb 29.29 in991.9 mb -
Precipitation 0.30 in7.6 mm - -
Hour Temp Dew Point Humidity Winds Wind Gusts Pressure Precip Precip Rate Daily Precip Total
12:00 AM 48.3°F9.1°C 46.0°F7.8°C 92% 1.2 mph WSW1.9 kmh WSW 3.5 mph5.6 kmh 29.52 in999.7 mb - 0.00 in0.0 mm 0.00 in0.0 mm
12:10 AM 48.3°F9.1°C 46.1°F7.8°C 92% Calm Calm -- 29.52 in999.7 mb - 0.00 in0.0 mm 0.00 in0.0 mm
12:20 AM 48.3°F9.1°C 46.1°F7.8°C 92% Calm Calm 1.2 mph1.9 kmh 29.52 in999.7 mb - 0.00 in0.0 mm 0.00 in0.0 mm
12:30 AM 48.2°F9.0°C 46.0°F7.8°C 92% Calm Calm 1.2 mph1.9 kmh 29.51 in999.3 mb - 0.00 in0.0 mm 0.00 in0.0 mm
12:40 AM 48.0°F8.9°C 46.1°F7.8°C 93% Calm Calm 1.2 mph1.9 kmh 29.51 in999.3 mb - 0.00 in0.0 mm 0.00 in0.0 mm
12:50 AM 48.0°F8.9°C 46.1°F7.8°C 93% Calm Calm 1.2 mph1.9 kmh 29.51 in999.3 mb - 0.00 in0.0 mm 0.00 in0.0 mm
01:00 AM 48.0°F8.9°C 45.8°F7.7°C 92% Calm Calm -- 29.51 in999.3 mb - 0.00 in0.0 mm 0.00 in0.0 mm
01:10 AM 48.2°F9.0°C 45.9°F7.7°C 92% Calm Calm 1.2 mph1.9 kmh 29.51 in999.3 mb - 0.00 in0.0 mm 0.00 in0.0 mm
01:20 AM 48.5°F9.2°C 46.0°F7.8°C 91% Calm Calm 1.2 mph1.9 kmh 29.50 in999.0 mb - 0.00 in0.0 mm 0.00 in0.0 mm
01:30 AM 48.8°F9.3°C 46.3°F7.9°C 91% Calm Calm 1.2 mph1.9 kmh 29.50 in999.0 mb - 0.00 in0.0 mm 0.00 in0.0 mm
01:40 AM 49.5°F9.7°C 46.9°F8.3°C 91% 2.3 mph W3.7 kmh W 3.5 mph5.6 kmh 29.50 in999.0 mb - 0.00 in0.0 mm 0.00 in0.0 mm
01:50 AM 49.4°F9.7°C 47.1°F8.4°C 92% 2.3 mph NW3.7 kmh NW 4.6 mph7.4 kmh 29.50 in999.0 mb - 0.00 in0.0 mm 0.00 in0.0 mm
02:00 AM 48.8°F9.3°C 46.9°F8.3°C 93% 1.2 mph NW1.9 kmh NW 3.5 mph5.6 kmh 29.50 in999.0 mb - 0.01 in0.3 mm 0.01 in0.3 mm
02:10 AM 48.5°F9.2°C 46.9°F8.3°C 94% 2.3 mph NW3.7 kmh NW 3.5 mph5.6 kmh 29.49 in998.6 mb - 0.01 in0.3 mm 0.01 in0.3 mm
02:20 AM 48.2°F9.0°C 46.6°F8.1°C 94% 3.5 mph NW5.6 kmh NW 3.5 mph5.6 kmh 29.49 in998.6 mb - 0.01 in0.3 mm 0.01 in0.3 mm
02:30 AM 48.2°F9.0°C 46.8°F8.2°C 95% 2.3 mph N3.7 kmh N 3.5 mph5.6 kmh 29.48 in998.3 mb - 0.01 in0.3 mm 0.01 in0.3 mm
02:40 AM 48.0°F8.9°C 46.6°F8.1°C 95% 3.5 mph N5.6 kmh N 3.5 mph5.6 kmh 29.48 in998.3 mb - 0.01 in0.3 mm 0.01 in0.3 mm
02:50 AM 48.0°F8.9°C 46.6°F8.1°C 95% 2.3 mph N3.7 kmh N 3.5 mph5.6 kmh 29.48 in998.3 mb - 0.02 in0.5 mm 0.02 in0.5 mm
03:00 AM 47.7°F8.7°C 46.3°F7.9°C 95% 2.3 mph N3.7 kmh N 3.5 mph5.6 kmh 29.47 in998.0 mb - 0.02 in0.5 mm 0.02 in0.5 mm
03:10 AM 47.7°F8.7°C 46.6°F8.1°C 96% Calm Calm -- 29.47 in998.0 mb - 0.02 in0.5 mm 0.02 in0.5 mm
03:20 AM 47.7°F8.7°C 46.6°F8.1°C 96% Calm Calm -- 29.47 in998.0 mb - 0.02 in0.5 mm 0.02 in0.5 mm
03:30 AM 47.8°F8.8°C 46.7°F8.2°C 96% Calm Calm -- 29.47 in998.0 mb - 0.02 in0.5 mm 0.02 in0.5 mm
03:40 AM 47.9°F8.8°C 46.8°F8.2°C 96% Calm Calm -- 29.47 in998.0 mb - 0.02 in0.5 mm 0.03 in0.8 mm
03:50 AM 47.9°F8.8°C 46.8°F8.2°C 96% Calm Calm -- 29.46 in997.6 mb - 0.02 in0.5 mm 0.03 in0.8 mm
04:00 AM 48.0°F8.9°C 46.9°F8.3°C 96% Calm Calm -- 29.46 in997.6 mb - 0.02 in0.5 mm 0.04 in1.0 mm
04:10 AM 48.2°F9.0°C 47.1°F8.4°C 96% Calm Calm -- 29.45 in997.3 mb - 0.02 in0.5 mm 0.04 in1.0 mm
04:20 AM 48.3°F9.1°C 47.2°F8.4°C 96% Calm Calm -- 29.45 in997.3 mb - 0.02 in0.5 mm 0.04 in1.0 mm
04:30 AM 48.2°F9.0°C 47.1°F8.4°C 96% Calm Calm -- 29.45 in997.3 mb - 0.02 in0.5 mm 0.04 in1.0 mm
04:40 AM 48.1°F8.9°C 47.1°F8.4°C 96% 1.2 mph WNW1.9 kmh WNW 2.3 mph3.7 kmh 29.45 in997.3 mb - 0.02 in0.5 mm 0.06 in1.5 mm
04:50 AM 48.3°F9.1°C 47.5°F8.6°C 97% Calm Calm -- 29.44 in997.0 mb - 0.05 in1.3 mm 0.08 in2.0 mm
05:00 AM 48.4°F9.1°C 47.5°F8.6°C 97% Calm Calm 2.3 mph3.7 kmh 29.43 in996.6 mb - 0.06 in1.5 mm 0.10 in2.5 mm
05:10 AM 49.0°F9.4°C 48.1°F8.9°C 97% 4.6 mph N7.4 kmh N 9.2 mph14.8 kmh 29.43 in996.6 mb - 0.07 in1.8 mm 0.11 in2.8 mm
05:20 AM 49.4°F9.7°C 48.6°F9.2°C 97% 5.8 mph N9.3 kmh N 6.9 mph11.1 kmh 29.43 in996.6 mb - 0.08 in2.0 mm 0.12 in3.0 mm
05:30 AM 49.5°F9.7°C 48.7°F9.3°C 97% 6.9 mph 11.1 kmh 9.2 mph14.8 kmh 29.42 in996.3 mb - 0.09 in2.3 mm 0.13 in3.3 mm
05:40 AM 49.7°F9.8°C 48.9°F9.4°C 97% 5.8 mph N9.3 kmh N 6.9 mph11.1 kmh 29.41 in995.9 mb - 0.08 in2.0 mm 0.13 in3.3 mm
05:50 AM 49.9°F9.9°C 49.1°F9.5°C 97% 4.6 mph SE7.4 kmh SE 9.2 mph14.8 kmh 29.41 in995.9 mb - 0.06 in1.5 mm 0.13 in3.3 mm
06:00 AM 50.0°F10.0°C 49.2°F9.6°C 97% 5.8 mph ESE9.3 kmh ESE 6.9 mph11.1 kmh 29.41 in995.9 mb - 0.04 in1.0 mm 0.14 in3.6 mm
06:10 AM 50.0°F10.0°C 49.1°F9.5°C 97% 5.8 mph SE9.3 kmh SE 8.1 mph13.0 kmh 29.39 in995.3 mb - 0.06 in1.5 mm 0.17 in4.3 mm
06:20 AM 49.9°F9.9°C 49.1°F9.5°C 97% 5.8 mph SE9.3 kmh SE 6.9 mph11.1 kmh 29.39 in995.3 mb - 0.08 in2.0 mm 0.20 in5.1 mm
06:30 AM 50.1°F10.1°C 49.3°F9.6°C 97% 10.4 mph E16.7 kmh E 12.7 mph20.4 kmh 29.38 in994.9 mb - 0.09 in2.3 mm 0.21 in5.3 mm
06:40 AM 50.4°F10.2°C 49.6°F9.8°C 97% 11.5 mph ESE18.5 kmh ESE 12.7 mph20.4 kmh 29.37 in994.6 mb - 0.09 in2.3 mm 0.21 in5.3 mm
06:50 AM 52.4°F11.3°C 51.9°F11.1°C 98% 13.8 mph NNE22.2 kmh NNE 16.1 mph25.9 kmh 29.36 in994.2 mb - 0.10 in2.5 mm 0.23 in5.8 mm
07:00 AM 51.8°F11.0°C 49.9°F9.9°C 93% 8.1 mph NW13.0 kmh NW 10.4 mph16.7 kmh 29.37 in994.6 mb - 0.11 in2.8 mm 0.24 in6.1 mm
07:10 AM 50.1°F10.1°C 48.7°F9.3°C 95% 9.2 mph NW14.8 kmh NW 12.7 mph20.4 kmh 29.37 in994.6 mb - 0.09 in2.3 mm 0.25 in6.4 mm
07:20 AM 49.5°F9.7°C 48.4°F9.1°C 96% 6.9 mph NNW11.1 kmh NNW 8.1 mph13.0 kmh 29.37 in994.6 mb - 0.06 in1.5 mm 0.25 in6.4 mm
07:30 AM 49.4°F9.7°C 48.3°F9.1°C 96% 5.8 mph NNW9.3 kmh NNW 9.2 mph14.8 kmh 29.38 in994.9 mb - 0.04 in1.0 mm 0.25 in6.4 mm
07:40 AM 48.9°F9.4°C 47.8°F8.8°C 96% 3.5 mph N5.6 kmh N 3.5 mph5.6 kmh 29.38 in994.9 mb - 0.05 in1.3 mm 0.26 in6.6 mm
07:50 AM 48.9°F9.4°C 48.1°F8.9°C 97% 3.5 mph N5.6 kmh N 5.8 mph9.3 kmh 29.38 in994.9 mb - 0.03 in0.8 mm 0.26 in6.6 mm
08:00 AM 49.1°F9.5°C 48.3°F9.1°C 97% 2.3 mph N3.7 kmh N 4.6 mph7.4 kmh 29.37 in994.6 mb - 0.02 in0.5 mm 0.26 in6.6 mm
08:10 AM 49.2°F9.6°C 48.1°F8.9°C 96% 2.3 mph NNW3.7 kmh NNW 2.3 mph3.7 kmh 29.38 in994.9 mb - 0.01 in0.3 mm 0.26 in6.6 mm
08:20 AM 49.3°F9.6°C 48.5°F9.2°C 97% Calm Calm -- 29.38 in994.9 mb - 0.02 in0.5 mm 0.27 in6.9 mm
08:30 AM 49.3°F9.6°C 48.5°F9.2°C 97% Calm Calm -- 29.38 in994.9 mb - 0.02 in0.5 mm 0.28 in7.1 mm
08:40 AM 49.3°F9.6°C 48.5°F9.2°C 97% Calm Calm -- 29.38 in994.9 mb - 0.02 in0.5 mm 0.28 in7.1 mm
08:50 AM 49.5°F9.7°C 48.6°F9.2°C 97% Calm Calm -- 29.38 in994.9 mb - 0.02 in0.5 mm 0.28 in7.1 mm
09:00 AM 49.4°F9.7°C 48.6°F9.2°C 97% Calm Calm -- 29.38 in994.9 mb - 0.02 in0.5 mm 0.28 in7.1 mm
09:10 AM 49.4°F9.7°C 48.6°F9.2°C 97% Calm Calm -- 29.38 in994.9 mb - 0.02 in0.5 mm 0.28 in7.1 mm
09:20 AM 49.7°F9.8°C 48.9°F9.4°C 97% 1.2 mph NW1.9 kmh NW 3.5 mph5.6 kmh 29.38 in994.9 mb - 0.02 in0.5 mm 0.28 in7.1 mm
09:30 AM 50.8°F10.4°C 50.3°F10.2°C 98% 1.2 mph NW1.9 kmh NW 5.8 mph9.3 kmh 29.37 in994.6 mb - 0.01 in0.3 mm 0.28 in7.1 mm
09:40 AM 54.0°F12.2°C 53.7°F12.1°C 99% 3.5 mph WSW5.6 kmh WSW 8.1 mph13.0 kmh 29.38 in994.9 mb - 0.01 in0.3 mm 0.28 in7.1 mm
09:50 AM 55.0°F12.8°C 54.4°F12.4°C 98% 5.8 mph NW9.3 kmh NW 10.4 mph16.7 kmh 29.37 in994.6 mb - 0.01 in0.3 mm 0.28 in7.1 mm
10:00 AM 54.9°F12.7°C 53.8°F12.1°C 96% 3.5 mph WSW5.6 kmh WSW 9.2 mph14.8 kmh 29.37 in994.6 mb - 0.01 in0.3 mm 0.28 in7.1 mm
10:10 AM 55.2°F12.9°C 54.1°F12.3°C 96% 2.3 mph NW3.7 kmh NW 13.8 mph22.2 kmh 29.37 in994.6 mb - 0.01 in0.3 mm 0.28 in7.1 mm
10:20 AM 55.4°F13.0°C 54.0°F12.2°C 95% 3.5 mph WNW5.6 kmh WNW 15.0 mph24.1 kmh 29.37 in994.6 mb - 0.00 in0.0 mm 0.28 in7.1 mm
10:30 AM 55.6°F13.1°C 53.6°F12.0°C 93% 3.5 mph NW5.6 kmh NW 9.2 mph14.8 kmh 29.37 in994.6 mb - 0.00 in0.0 mm 0.28 in7.1 mm
10:40 AM 55.3°F12.9°C 53.3°F11.8°C 93% 5.8 mph WNW9.3 kmh WNW 6.9 mph11.1 kmh 29.37 in994.6 mb - 0.00 in0.0 mm 0.28 in7.1 mm
10:50 AM 55.6°F13.1°C 53.6°F12.0°C 93% 5.8 mph NW9.3 kmh NW 11.5 mph18.5 kmh 29.37 in994.6 mb - 0.00 in0.0 mm 0.28 in7.1 mm
11:00 AM 56.2°F13.4°C 53.6°F12.0°C 91% 4.6 mph NW7.4 kmh NW 9.2 mph14.8 kmh 29.36 in994.2 mb - 0.00 in0.0 mm 0.28 in7.1 mm
11:10 AM 55.9°F13.3°C 53.3°F11.8°C 91% 4.6 mph NNW7.4 kmh NNW 6.9 mph11.1 kmh 29.36 in994.2 mb - 0.00 in0.0 mm 0.28 in7.1 mm
11:20 AM 56.8°F13.8°C 54.5°F12.5°C 92% 4.6 mph N7.4 kmh N 5.8 mph9.3 kmh 29.36 in994.2 mb - 0.00 in0.0 mm 0.28 in7.1 mm
11:30 AM 56.1°F13.4°C 53.5°F11.9°C 91% 8.1 mph N13.0 kmh N 11.5 mph18.5 kmh 29.36 in994.2 mb - 0.00 in0.0 mm 0.28 in7.1 mm
11:40 AM 55.7°F13.2°C 53.4°F11.9°C 92% 6.9 mph N11.1 kmh N 10.4 mph16.7 kmh 29.36 in994.2 mb - 0.00 in0.0 mm 0.28 in7.1 mm
11:50 AM 55.4°F13.0°C 53.4°F11.9°C 93% 11.5 mph NNW18.5 kmh NNW 16.1 mph25.9 kmh 29.35 in993.9 mb - 0.00 in0.0 mm 0.28 in7.1 mm
12:00 PM 55.2°F12.9°C 53.8°F12.1°C 95% 6.9 mph NNW11.1 kmh NNW 10.4 mph16.7 kmh 29.35 in993.9 mb - 0.01 in0.3 mm 0.29 in7.4 mm
12:10 PM 55.6°F13.1°C 53.9°F12.2°C 94% 9.2 mph N14.8 kmh N 12.7 mph20.4 kmh 29.34 in993.6 mb - 0.01 in0.3 mm 0.29 in7.4 mm
12:20 PM 55.9°F13.3°C 53.9°F12.2°C 93% 9.2 mph NNW14.8 kmh NNW 16.1 mph25.9 kmh 29.35 in993.9 mb - 0.01 in0.3 mm 0.29 in7.4 mm
12:30 PM 54.5°F12.5°C 51.3°F10.7°C 89% 5.8 mph NW9.3 kmh NW 11.5 mph18.5 kmh 29.34 in993.6 mb - 0.02 in0.5 mm 0.30 in7.6 mm
12:40 PM 54.5°F12.5°C 50.7°F10.4°C 87% 6.9 mph NW11.1 kmh NW 11.5 mph18.5 kmh 29.34 in993.6 mb - 0.02 in0.5 mm 0.30 in7.6 mm
12:50 PM 54.6°F12.6°C 50.8°F10.4°C 87% 2.3 mph W3.7 kmh W 9.2 mph14.8 kmh 29.34 in993.6 mb - 0.02 in0.5 mm 0.30 in7.6 mm
01:00 PM 54.9°F12.7°C 51.5°F10.8°C 88% 4.6 mph NW7.4 kmh NW 8.1 mph13.0 kmh 29.34 in993.6 mb - 0.01 in0.3 mm 0.30 in7.6 mm
01:10 PM 54.5°F12.5°C 51.0°F10.6°C 88% 3.5 mph NNW5.6 kmh NNW 5.8 mph9.3 kmh 29.34 in993.6 mb - 0.01 in0.3 mm 0.30 in7.6 mm
01:20 PM 54.3°F12.4°C 51.1°F10.6°C 89% 4.6 mph NW7.4 kmh NW 5.8 mph9.3 kmh 29.33 in993.2 mb - 0.01 in0.3 mm 0.30 in7.6 mm
01:30 PM 54.9°F12.7°C 52.3°F11.3°C 91% 3.5 mph NW5.6 kmh NW 5.8 mph9.3 kmh 29.33 in993.2 mb - 0.00 in0.0 mm 0.30 in7.6 mm
01:40 PM 55.7°F13.2°C 52.8°F11.6°C 90% 4.6 mph WNW7.4 kmh WNW 9.2 mph14.8 kmh 29.33 in993.2 mb - 0.00 in0.0 mm 0.30 in7.6 mm
01:50 PM 55.6°F13.1°C 51.8°F11.0°C 87% 4.6 mph W7.4 kmh W 12.7 mph20.4 kmh 29.34 in993.6 mb - 0.00 in0.0 mm 0.30 in7.6 mm
02:00 PM 55.9°F13.3°C 52.1°F11.2°C 87% 8.1 mph NW13.0 kmh NW 12.7 mph20.4 kmh 29.33 in993.2 mb - 0.00 in0.0 mm 0.30 in7.6 mm
02:10 PM 56.3°F13.5°C 52.2°F11.2°C 86% 4.6 mph W7.4 kmh W 6.9 mph11.1 kmh 29.33 in993.2 mb - 0.00 in0.0 mm 0.30 in7.6 mm
02:20 PM 56.6°F13.7°C 51.9°F11.1°C 84% 5.8 mph NW9.3 kmh NW 10.4 mph16.7 kmh 29.32 in992.9 mb - 0.00 in0.0 mm 0.30 in7.6 mm
02:30 PM 56.5°F13.6°C 51.4°F10.8°C 83% 5.8 mph NW9.3 kmh NW 11.5 mph18.5 kmh 29.32 in992.9 mb - 0.00 in0.0 mm 0.30 in7.6 mm
02:40 PM 56.5°F13.6°C 51.1°F10.6°C 82% 5.8 mph NW9.3 kmh NW 11.5 mph18.5 kmh 29.32 in992.9 mb - 0.00 in0.0 mm 0.30 in7.6 mm
02:50 PM 55.8°F13.2°C 50.4°F10.2°C 82% 6.9 mph W11.1 kmh W 13.8 mph22.2 kmh 29.32 in992.9 mb - 0.00 in0.0 mm 0.30 in7.6 mm
03:00 PM 55.3°F12.9°C 50.9°F10.5°C 85% 3.5 mph WNW5.6 kmh WNW 10.4 mph16.7 kmh 29.32 in992.9 mb - 0.00 in0.0 mm 0.30 in7.6 mm
03:10 PM 55.0°F12.8°C 51.2°F10.7°C 87% 4.6 mph NW7.4 kmh NW 15.0 mph24.1 kmh 29.32 in992.9 mb - 0.00 in0.0 mm 0.30 in7.6 mm
03:20 PM 54.9°F12.7°C 50.8°F10.4°C 86% 4.6 mph NW7.4 kmh NW 6.9 mph11.1 kmh 29.32 in992.9 mb - 0.00 in0.0 mm 0.30 in7.6 mm
03:30 PM 55.1°F12.8°C 51.3°F10.7°C 87% 2.3 mph NW3.7 kmh NW 10.4 mph16.7 kmh 29.32 in992.9 mb - 0.00 in0.0 mm 0.30 in7.6 mm
03:40 PM 55.5°F13.1°C 50.1°F10.1°C 82% 8.1 mph W13.0 kmh W 13.8 mph22.2 kmh 29.32 in992.9 mb - 0.00 in0.0 mm 0.30 in7.6 mm
03:50 PM 55.4°F13.0°C 50.0°F10.0°C 82% 8.1 mph NW13.0 kmh NW 12.7 mph20.4 kmh 29.31 in992.6 mb - 0.00 in0.0 mm 0.30 in7.6 mm
04:00 PM 55.0°F12.8°C 49.6°F9.8°C 82% 5.8 mph NW9.3 kmh NW 11.5 mph18.5 kmh 29.31 in992.6 mb - 0.00 in0.0 mm 0.30 in7.6 mm
04:10 PM 54.9°F12.7°C 50.2°F10.1°C 84% 5.8 mph NW9.3 kmh NW 11.5 mph18.5 kmh 29.31 in992.6 mb - 0.00 in0.0 mm 0.30 in7.6 mm
04:20 PM 54.6°F12.6°C 49.5°F9.7°C 83% 6.9 mph NW11.1 kmh NW 6.9 mph11.1 kmh 29.31 in992.6 mb - 0.00 in0.0 mm 0.30 in7.6 mm
04:30 PM 54.4°F12.4°C 50.0°F10.0°C 85% 6.9 mph NW11.1 kmh NW 11.5 mph18.5 kmh 29.31 in992.6 mb - 0.00 in0.0 mm 0.30 in7.6 mm
04:40 PM 54.3°F12.4°C 50.2°F10.1°C 86% 8.1 mph WNW13.0 kmh WNW 11.5 mph18.5 kmh 29.31 in992.6 mb - 0.00 in0.0 mm 0.30 in7.6 mm
04:50 PM 54.2°F12.3°C 49.7°F9.8°C 85% 4.6 mph NNW7.4 kmh NNW 9.2 mph14.8 kmh 29.31 in992.6 mb - 0.00 in0.0 mm 0.30 in7.6 mm
05:00 PM 53.9°F12.2°C 49.2°F9.6°C 84% 4.6 mph NNW7.4 kmh NNW 10.4 mph16.7 kmh 29.31 in992.6 mb - 0.00 in0.0 mm 0.30 in7.6 mm
05:10 PM 53.8°F12.1°C 49.4°F9.7°C 85% 2.3 mph N3.7 kmh N 8.1 mph13.0 kmh 29.31 in992.6 mb - 0.00 in0.0 mm 0.30 in7.6 mm
05:20 PM 53.7°F12.1°C 49.6°F9.8°C 86% 6.9 mph NNW11.1 kmh NNW 9.2 mph14.8 kmh 29.31 in992.6 mb - 0.00 in0.0 mm 0.30 in7.6 mm
05:30 PM 53.7°F12.1°C 49.3°F9.6°C 85% 4.6 mph NW7.4 kmh NW 6.9 mph11.1 kmh 29.31 in992.6 mb - 0.00 in0.0 mm 0.30 in7.6 mm
05:40 PM 53.6°F12.0°C 49.2°F9.6°C 85% 4.6 mph WNW7.4 kmh WNW 11.5 mph18.5 kmh 29.30 in992.2 mb - 0.00 in0.0 mm 0.30 in7.6 mm
05:50 PM 53.5°F11.9°C 49.4°F9.7°C 86% 3.5 mph NNW5.6 kmh NNW 6.9 mph11.1 kmh 29.30 in992.2 mb - 0.00 in0.0 mm 0.30 in7.6 mm
06:00 PM 53.4°F11.9°C 49.3°F9.6°C 86% 3.5 mph NW5.6 kmh NW 8.1 mph13.0 kmh 29.30 in992.2 mb - 0.00 in0.0 mm 0.30 in7.6 mm
06:10 PM 53.2°F11.8°C 48.8°F9.3°C 85% 4.6 mph WSW7.4 kmh WSW 11.5 mph18.5 kmh 29.31 in992.6 mb - 0.00 in0.0 mm 0.30 in7.6 mm
06:20 PM 53.1°F11.7°C 48.7°F9.3°C 85% 3.5 mph NW5.6 kmh NW 6.9 mph11.1 kmh 29.30 in992.2 mb - 0.00 in0.0 mm 0.30 in7.6 mm
06:30 PM 53.0°F11.7°C 48.6°F9.2°C 85% 3.5 mph W5.6 kmh W 6.9 mph11.1 kmh 29.30 in992.2 mb - 0.00 in0.0 mm 0.30 in7.6 mm
06:40 PM 52.8°F11.6°C 48.7°F9.3°C 86% 3.5 mph W5.6 kmh W 6.9 mph11.1 kmh 29.30 in992.2 mb - 0.00 in0.0 mm 0.30 in7.6 mm
06:50 PM 52.9°F11.6°C 49.1°F9.5°C 87% 3.5 mph NW5.6 kmh NW 3.5 mph5.6 kmh 29.30 in992.2 mb - 0.00 in0.0 mm 0.30 in7.6 mm
07:00 PM 52.9°F11.6°C 48.9°F9.4°C 86% 5.8 mph WNW9.3 kmh WNW 10.4 mph16.7 kmh 29.30 in992.2 mb - 0.00 in0.0 mm 0.30 in7.6 mm
07:10 PM 53.0°F11.7°C 48.9°F9.4°C 86% 2.3 mph W3.7 kmh W 6.9 mph11.1 kmh 29.30 in992.2 mb - 0.00 in0.0 mm 0.30 in7.6 mm
07:20 PM 52.7°F11.5°C 48.6°F9.2°C 86% 1.2 mph N1.9 kmh N 3.5 mph5.6 kmh 29.30 in992.2 mb - 0.00 in0.0 mm 0.30 in7.6 mm
07:30 PM 52.5°F11.4°C 48.4°F9.1°C 86% 3.5 mph WNW5.6 kmh WNW 5.8 mph9.3 kmh 29.29 in991.9 mb - 0.00 in0.0 mm 0.30 in7.6 mm
07:40 PM 52.6°F11.4°C 48.5°F9.2°C 86% 2.3 mph WSW3.7 kmh WSW 8.1 mph13.0 kmh 29.29 in991.9 mb - 0.00 in0.0 mm 0.30 in7.6 mm
07:50 PM 52.9°F11.6°C 48.8°F9.3°C 86% 5.8 mph NW9.3 kmh NW 11.5 mph18.5 kmh 29.29 in991.9 mb - 0.00 in0.0 mm 0.30 in7.6 mm
08:00 PM 53.0°F11.7°C 49.2°F9.6°C 87% 4.6 mph W7.4 kmh W 11.5 mph18.5 kmh 29.30 in992.2 mb - 0.00 in0.0 mm 0.30 in7.6 mm
08:10 PM 53.2°F11.8°C 49.4°F9.7°C 87% 4.6 mph WNW7.4 kmh WNW 8.1 mph13.0 kmh 29.29 in991.9 mb - 0.00 in0.0 mm 0.30 in7.6 mm
08:20 PM 53.3°F11.8°C 49.5°F9.7°C 87% 4.6 mph WNW7.4 kmh WNW 5.8 mph9.3 kmh 29.29 in991.9 mb - 0.00 in0.0 mm 0.30 in7.6 mm
08:30 PM 53.1°F11.7°C 49.0°F9.4°C 86% 3.5 mph WNW5.6 kmh WNW 4.6 mph7.4 kmh 29.29 in991.9 mb - 0.00 in0.0 mm 0.30 in7.6 mm
08:40 PM 53.0°F11.7°C 48.9°F9.4°C 86% 4.6 mph NW7.4 kmh NW 6.9 mph11.1 kmh 29.30 in992.2 mb - 0.00 in0.0 mm 0.30 in7.6 mm
08:50 PM 53.1°F11.7°C 48.7°F9.3°C 85% 2.3 mph NW3.7 kmh NW 6.9 mph11.1 kmh 29.29 in991.9 mb - 0.00 in0.0 mm 0.30 in7.6 mm
09:00 PM 53.0°F11.7°C 48.6°F9.2°C 85% 3.5 mph WNW5.6 kmh WNW 9.2 mph14.8 kmh 29.29 in991.9 mb - 0.00 in0.0 mm 0.30 in7.6 mm
09:10 PM 53.2°F11.8°C 48.8°F9.3°C 85% 4.6 mph WNW7.4 kmh WNW 11.5 mph18.5 kmh 29.29 in991.9 mb - 0.00 in0.0 mm 0.30 in7.6 mm
09:20 PM 53.1°F11.7°C 48.7°F9.3°C 85% 4.6 mph W7.4 kmh W 11.5 mph18.5 kmh 29.29 in991.9 mb - 0.00 in0.0 mm 0.30 in7.6 mm
09:30 PM 53.0°F11.7°C 48.6°F9.2°C 85% 4.6 mph WNW7.4 kmh WNW 9.2 mph14.8 kmh 29.30 in992.2 mb - 0.00 in0.0 mm 0.30 in7.6 mm
09:40 PM 52.9°F11.6°C 48.5°F9.2°C 85% 4.6 mph NNW7.4 kmh NNW 3.5 mph5.6 kmh 29.30 in992.2 mb - 0.00 in0.0 mm 0.30 in7.6 mm
09:50 PM 52.7°F11.5°C 48.6°F9.2°C 86% 1.2 mph W1.9 kmh W 5.8 mph9.3 kmh 29.30 in992.2 mb - 0.00 in0.0 mm 0.30 in7.6 mm
10:00 PM 52.7°F11.5°C 48.6°F9.2°C 86% 1.2 mph WSW1.9 kmh WSW 3.5 mph5.6 kmh 29.29 in991.9 mb - 0.00 in0.0 mm 0.30 in7.6 mm
10:10 PM 52.6°F11.4°C 48.5°F9.2°C 86% 2.3 mph WSW3.7 kmh WSW 3.5 mph5.6 kmh 29.30 in992.2 mb - 0.00 in0.0 mm 0.30 in7.6 mm
10:20 PM 52.3°F11.3°C 48.3°F9.1°C 86% 1.2 mph WSW1.9 kmh WSW 4.6 mph7.4 kmh 29.30 in992.2 mb - 0.00 in0.0 mm 0.30 in7.6 mm
10:30 PM 52.1°F11.2°C 48.0°F8.9°C 86% 2.3 mph WSW3.7 kmh WSW 8.1 mph13.0 kmh 29.30 in992.2 mb - 0.00 in0.0 mm 0.30 in7.6 mm
10:40 PM 52.1°F11.2°C 48.1°F8.9°C 86% 2.3 mph WNW3.7 kmh WNW 6.9 mph11.1 kmh 29.30 in992.2 mb - 0.00 in0.0 mm 0.30 in7.6 mm
10:50 PM 52.3°F11.3°C 47.9°F8.8°C 85% 4.6 mph W7.4 kmh W 8.1 mph13.0 kmh 29.30 in992.2 mb - 0.00 in0.0 mm 0.30 in7.6 mm
11:00 PM 52.2°F11.2°C 47.8°F8.8°C 85% 2.3 mph WNW3.7 kmh WNW 4.6 mph7.4 kmh 29.31 in992.6 mb - 0.00 in0.0 mm 1.96 in49.8 mm
11:10 PM 52.1°F11.2°C 48.0°F8.9°C 86% 1.2 mph WSW1.9 kmh WSW 1.2 mph1.9 kmh 29.31 in992.6 mb - 0.00 in0.0 mm 1.96 in49.8 mm
11:20 PM 51.9°F11.1°C 47.8°F8.8°C 86% 1.2 mph NW1.9 kmh NW 3.5 mph5.6 kmh 29.30 in992.2 mb - 0.00 in0.0 mm 1.96 in49.8 mm
11:30 PM 52.1°F11.2°C 48.0°F8.9°C 86% 1.2 mph W1.9 kmh W 6.9 mph11.1 kmh 29.31 in992.6 mb - 0.00 in0.0 mm 1.96 in49.8 mm
11:40 PM 52.5°F11.4°C 48.4°F9.1°C 86% 2.3 mph N3.7 kmh N 4.6 mph7.4 kmh 29.30 in992.2 mb - 0.00 in0.0 mm 1.96 in49.8 mm
11:50 PM 53.0°F11.7°C 48.9°F9.4°C 86% 4.6 mph NW7.4 kmh NW 9.2 mph14.8 kmh 29.30 in992.2 mb - 0.00 in0.0 mm 1.96 in49.8 mm